sensor_id;sensor_type;location;lat;lon;timestamp;P1;durP1;ratioP1;P2;durP2;ratioP2
4521;SDS011;2273;48.464;11.926;2023-11-18T00:02:08;13.07;;;8.60;;
4521;SDS011;2273;48.464;11.926;2023-11-18T00:04:34;15.30;;;9.03;;
4521;SDS011;2273;48.464;11.926;2023-11-18T00:06:59;13.73;;;8.33;;
4521;SDS011;2273;48.464;11.926;2023-11-18T00:09:25;13.63;;;9.10;;
4521;SDS011;2273;48.464;11.926;2023-11-18T00:11:51;14.90;;;8.93;;
4521;SDS011;2273;48.464;11.926;2023-11-18T00:14:16;19.63;;;9.07;;
4521;SDS011;2273;48.464;11.926;2023-11-18T00:16:43;17.00;;;9.50;;
4521;SDS011;2273;48.464;11.926;2023-11-18T00:19:08;14.73;;;9.73;;
4521;SDS011;2273;48.464;11.926;2023-11-18T00:21:34;13.27;;;8.80;;
4521;SDS011;2273;48.464;11.926;2023-11-18T00:24:01;14.17;;;9.53;;
4521;SDS011;2273;48.464;11.926;2023-11-18T00:26:26;13.83;;;8.70;;
4521;SDS011;2273;48.464;11.926;2023-11-18T00:28:57;13.30;;;8.57;;
4521;SDS011;2273;48.464;11.926;2023-11-18T00:31:23;17.93;;;8.83;;
4521;SDS011;2273;48.464;11.926;2023-11-18T00:33:50;18.03;;;9.43;;
4521;SDS011;2273;48.464;11.926;2023-11-18T00:36:15;12.67;;;8.43;;
4521;SDS011;2273;48.464;11.926;2023-11-18T00:38:40;13.23;;;8.93;;
4521;SDS011;2273;48.464;11.926;2023-11-18T00:41:06;13.47;;;8.07;;
4521;SDS011;2273;48.464;11.926;2023-11-18T00:43:32;15.90;;;9.60;;
4521;SDS011;2273;48.464;11.926;2023-11-18T00:45:58;13.10;;;9.23;;
4521;SDS011;2273;48.464;11.926;2023-11-18T00:48:24;14.97;;;9.00;;
4521;SDS011;2273;48.464;11.926;2023-11-18T00:50:50;14.03;;;9.90;;
4521;SDS011;2273;48.464;11.926;2023-11-18T00:53:17;13.47;;;9.07;;
4521;SDS011;2273;48.464;11.926;2023-11-18T00:55:42;13.87;;;8.57;;
4521;SDS011;2273;48.464;11.926;2023-11-18T00:58:08;16.37;;;8.57;;
4521;SDS011;2273;48.464;11.926;2023-11-18T01:00:33;17.87;;;8.53;;
4521;SDS011;2273;48.464;11.926;2023-11-18T01:02:59;14.47;;;8.10;;
4521;SDS011;2273;48.464;11.926;2023-11-18T01:05:24;14.53;;;8.37;;
4521;SDS011;2273;48.464;11.926;2023-11-18T01:07:50;16.47;;;8.13;;
4521;SDS011;2273;48.464;11.926;2023-11-18T01:10:15;11.17;;;6.97;;
4521;SDS011;2273;48.464;11.926;2023-11-18T01:12:41;11.10;;;7.07;;
4521;SDS011;2273;48.464;11.926;2023-11-18T01:15:07;13.17;;;7.40;;
4521;SDS011;2273;48.464;11.926;2023-11-18T01:17:35;11.80;;;7.93;;
4521;SDS011;2273;48.464;11.926;2023-11-18T01:20:01;9.57;;;6.70;;
4521;SDS011;2273;48.464;11.926;2023-11-18T01:22:33;11.17;;;6.50;;
4521;SDS011;2273;48.464;11.926;2023-11-18T01:24:59;8.60;;;6.67;;
4521;SDS011;2273;48.464;11.926;2023-11-18T01:27:26;11.93;;;7.83;;
4521;SDS011;2273;48.464;11.926;2023-11-18T01:29:52;10.32;;;7.15;;
4521;SDS011;2273;48.464;11.926;2023-11-18T01:32:17;9.67;;;6.73;;
4521;SDS011;2273;48.464;11.926;2023-11-18T01:34:44;10.10;;;7.10;;
4521;SDS011;2273;48.464;11.926;2023-11-18T01:37:15;12.63;;;7.10;;
4521;SDS011;2273;48.464;11.926;2023-11-18T01:39:43;10.00;;;5.80;;
4521;SDS011;2273;48.464;11.926;2023-11-18T01:42:08;7.90;;;5.57;;
4521;SDS011;2273;48.464;11.926;2023-11-18T01:44:34;6.60;;;4.53;;
4521;SDS011;2273;48.464;11.926;2023-11-18T01:47:03;5.53;;;3.90;;
4521;SDS011;2273;48.464;11.926;2023-11-18T01:49:31;5.53;;;3.57;;
4521;SDS011;2273;48.464;11.926;2023-11-18T01:51:57;3.73;;;3.03;;
4521;SDS011;2273;48.464;11.926;2023-11-18T01:54:24;4.20;;;3.00;;
4521;SDS011;2273;48.464;11.926;2023-11-18T01:56:50;3.77;;;2.43;;
4521;SDS011;2273;48.464;11.926;2023-11-18T01:59:17;3.40;;;2.73;;
4521;SDS011;2273;48.464;11.926;2023-11-18T02:01:46;2.83;;;2.23;;
4521;SDS011;2273;48.464;11.926;2023-11-18T02:04:16;3.23;;;2.40;;
4521;SDS011;2273;48.464;11.926;2023-11-18T02:06:45;3.73;;;2.50;;
4521;SDS011;2273;48.464;11.926;2023-11-18T02:09:12;4.10;;;2.80;;
4521;SDS011;2273;48.464;11.926;2023-11-18T02:11:39;3.30;;;2.43;;
4521;SDS011;2273;48.464;11.926;2023-11-18T02:14:09;3.50;;;2.63;;
4521;SDS011;2273;48.464;11.926;2023-11-18T02:16:39;3.37;;;2.67;;
4521;SDS011;2273;48.464;11.926;2023-11-18T02:22:00;2.90;;;2.10;;
4521;SDS011;2273;48.464;11.926;2023-11-18T02:24:27;2.90;;;2.10;;
4521;SDS011;2273;48.464;11.926;2023-11-18T02:26:56;2.80;;;2.10;;
4521;SDS011;2273;48.464;11.926;2023-11-18T02:29:23;2.73;;;2.30;;
4521;SDS011;2273;48.464;11.926;2023-11-18T02:31:49;3.47;;;2.30;;
4521;SDS011;2273;48.464;11.926;2023-11-18T02:34:19;3.87;;;2.30;;
4521;SDS011;2273;48.464;11.926;2023-11-18T02:36:48;4.47;;;2.70;;
4521;SDS011;2273;48.464;11.926;2023-11-18T02:39:20;3.00;;;2.30;;
4521;SDS011;2273;48.464;11.926;2023-11-18T02:41:48;3.40;;;2.40;;
4521;SDS011;2273;48.464;11.926;2023-11-18T02:44:17;3.27;;;2.23;;
4521;SDS011;2273;48.464;11.926;2023-11-18T02:46:43;5.93;;;4.40;;
4521;SDS011;2273;48.464;11.926;2023-11-18T02:49:09;6.43;;;4.60;;
4521;SDS011;2273;48.464;11.926;2023-11-18T02:51:35;6.17;;;4.37;;
4521;SDS011;2273;48.464;11.926;2023-11-18T02:54:07;5.83;;;4.47;;
4521;SDS011;2273;48.464;11.926;2023-11-18T02:56:36;5.30;;;3.60;;
4521;SDS011;2273;48.464;11.926;2023-11-18T02:59:01;6.57;;;4.40;;
4521;SDS011;2273;48.464;11.926;2023-11-18T03:01:30;7.00;;;4.87;;
4521;SDS011;2273;48.464;11.926;2023-11-18T03:03:56;6.43;;;4.57;;
4521;SDS011;2273;48.464;11.926;2023-11-18T03:06:22;7.30;;;4.07;;
4521;SDS011;2273;48.464;11.926;2023-11-18T03:08:47;11.00;;;3.50;;
4521;SDS011;2273;48.464;11.926;2023-11-18T03:11:12;4.90;;;2.90;;
4521;SDS011;2273;48.464;11.926;2023-11-18T03:13:38;3.60;;;2.60;;
4521;SDS011;2273;48.464;11.926;2023-11-18T03:16:07;3.97;;;2.80;;
4521;SDS011;2273;48.464;11.926;2023-11-18T03:18:37;3.00;;;2.33;;
4521;SDS011;2273;48.464;11.926;2023-11-18T03:21:12;3.70;;;2.80;;
4521;SDS011;2273;48.464;11.926;2023-11-18T03:23:38;4.50;;;2.90;;
4521;SDS011;2273;48.464;11.926;2023-11-18T03:26:05;3.97;;;2.60;;
4521;SDS011;2273;48.464;11.926;2023-11-18T03:28:31;3.73;;;2.60;;
4521;SDS011;2273;48.464;11.926;2023-11-18T03:30:57;3.10;;;2.30;;
4521;SDS011;2273;48.464;11.926;2023-11-18T03:33:22;3.40;;;2.40;;
4521;SDS011;2273;48.464;11.926;2023-11-18T03:35:48;2.90;;;2.13;;
4521;SDS011;2273;48.464;11.926;2023-11-18T03:38:14;3.00;;;1.90;;
4521;SDS011;2273;48.464;11.926;2023-11-18T03:40:40;2.63;;;2.03;;
4521;SDS011;2273;48.464;11.926;2023-11-18T03:43:07;2.97;;;2.27;;
4521;SDS011;2273;48.464;11.926;2023-11-18T03:45:32;2.40;;;1.90;;
4521;SDS011;2273;48.464;11.926;2023-11-18T03:47:58;2.30;;;1.77;;
4521;SDS011;2273;48.464;11.926;2023-11-18T03:50:26;3.10;;;1.90;;
4521;SDS011;2273;48.464;11.926;2023-11-18T03:52:51;3.03;;;2.30;;
4521;SDS011;2273;48.464;11.926;2023-11-18T03:55:17;3.00;;;2.30;;
4521;SDS011;2273;48.464;11.926;2023-11-18T03:57:43;4.77;;;3.03;;
4521;SDS011;2273;48.464;11.926;2023-11-18T04:00:10;5.37;;;4.30;;
4521;SDS011;2273;48.464;11.926;2023-11-18T04:02:38;5.93;;;4.03;;
4521;SDS011;2273;48.464;11.926;2023-11-18T04:05:05;7.60;;;5.60;;
4521;SDS011;2273;48.464;11.926;2023-11-18T04:07:31;10.70;;;6.83;;
4521;SDS011;2273;48.464;11.926;2023-11-18T04:09:56;12.50;;;7.20;;
4521;SDS011;2273;48.464;11.926;2023-11-18T04:12:22;14.17;;;7.40;;
4521;SDS011;2273;48.464;11.926;2023-11-18T04:14:49;10.87;;;7.27;;
4521;SDS011;2273;48.464;11.926;2023-11-18T04:17:14;11.87;;;7.77;;
4521;SDS011;2273;48.464;11.926;2023-11-18T04:19:40;13.07;;;8.23;;
4521;SDS011;2273;48.464;11.926;2023-11-18T04:22:06;11.90;;;7.90;;
4521;SDS011;2273;48.464;11.926;2023-11-18T04:24:31;11.00;;;7.83;;
4521;SDS011;2273;48.464;11.926;2023-11-18T04:26:57;13.87;;;8.00;;
4521;SDS011;2273;48.464;11.926;2023-11-18T04:29:22;10.93;;;7.33;;
4521;SDS011;2273;48.464;11.926;2023-11-18T04:31:48;11.87;;;8.00;;
4521;SDS011;2273;48.464;11.926;2023-11-18T04:34:13;13.97;;;8.63;;
4521;SDS011;2273;48.464;11.926;2023-11-18T04:36:40;12.20;;;8.97;;
4521;SDS011;2273;48.464;11.926;2023-11-18T04:39:06;12.67;;;8.80;;
4521;SDS011;2273;48.464;11.926;2023-11-18T04:41:32;12.67;;;8.63;;
4521;SDS011;2273;48.464;11.926;2023-11-18T04:43:58;13.33;;;8.70;;
4521;SDS011;2273;48.464;11.926;2023-11-18T04:46:23;12.87;;;7.53;;
4521;SDS011;2273;48.464;11.926;2023-11-18T04:48:49;9.73;;;7.13;;
4521;SDS011;2273;48.464;11.926;2023-11-18T04:51:14;11.20;;;7.63;;
4521;SDS011;2273;48.464;11.926;2023-11-18T04:53:39;10.03;;;7.07;;
4521;SDS011;2273;48.464;11.926;2023-11-18T04:56:05;11.20;;;7.57;;
4521;SDS011;2273;48.464;11.926;2023-11-18T04:58:35;14.33;;;8.00;;
4521;SDS011;2273;48.464;11.926;2023-11-18T05:01:02;14.93;;;8.03;;
4521;SDS011;2273;48.464;11.926;2023-11-18T05:03:28;12.27;;;8.17;;
4521;SDS011;2273;48.464;11.926;2023-11-18T05:05:53;12.23;;;7.40;;
4521;SDS011;2273;48.464;11.926;2023-11-18T05:08:19;9.07;;;6.30;;
4521;SDS011;2273;48.464;11.926;2023-11-18T05:10:48;11.63;;;7.27;;
4521;SDS011;2273;48.464;11.926;2023-11-18T05:13:15;11.50;;;7.30;;
4521;SDS011;2273;48.464;11.926;2023-11-18T05:15:42;9.40;;;6.50;;
4521;SDS011;2273;48.464;11.926;2023-11-18T05:18:10;11.23;;;6.77;;
4521;SDS011;2273;48.464;11.926;2023-11-18T05:20:41;10.50;;;7.93;;
4521;SDS011;2273;48.464;11.926;2023-11-18T05:23:08;10.90;;;7.30;;
4521;SDS011;2273;48.464;11.926;2023-11-18T05:25:37;10.17;;;6.80;;
4521;SDS011;2273;48.464;11.926;2023-11-18T05:28:04;8.93;;;6.53;;
4521;SDS011;2273;48.464;11.926;2023-11-18T05:30:30;9.70;;;6.93;;
4521;SDS011;2273;48.464;11.926;2023-11-18T05:32:56;10.33;;;6.60;;
4521;SDS011;2273;48.464;11.926;2023-11-18T05:35:23;10.50;;;7.20;;
4521;SDS011;2273;48.464;11.926;2023-11-18T05:37:53;10.57;;;7.17;;
4521;SDS011;2273;48.464;11.926;2023-11-18T05:40:19;10.83;;;7.63;;
4521;SDS011;2273;48.464;11.926;2023-11-18T05:42:45;9.37;;;6.83;;
4521;SDS011;2273;48.464;11.926;2023-11-18T05:45:13;9.43;;;6.80;;
4521;SDS011;2273;48.464;11.926;2023-11-18T05:47:53;14.13;;;8.57;;
4521;SDS011;2273;48.464;11.926;2023-11-18T05:50:19;9.70;;;6.33;;
4521;SDS011;2273;48.464;11.926;2023-11-18T05:52:45;10.23;;;7.10;;
4521;SDS011;2273;48.464;11.926;2023-11-18T05:55:10;10.60;;;6.90;;
4521;SDS011;2273;48.464;11.926;2023-11-18T05:57:36;10.20;;;7.13;;
4521;SDS011;2273;48.464;11.926;2023-11-18T06:00:01;12.07;;;8.13;;
4521;SDS011;2273;48.464;11.926;2023-11-18T06:02:37;11.97;;;7.07;;
4521;SDS011;2273;48.464;11.926;2023-11-18T06:05:04;10.00;;;7.07;;
4521;SDS011;2273;48.464;11.926;2023-11-18T06:07:30;8.93;;;6.20;;
4521;SDS011;2273;48.464;11.926;2023-11-18T06:09:55;12.40;;;7.47;;
4521;SDS011;2273;48.464;11.926;2023-11-18T06:12:22;12.10;;;7.40;;
4521;SDS011;2273;48.464;11.926;2023-11-18T06:14:48;13.30;;;7.93;;
4521;SDS011;2273;48.464;11.926;2023-11-18T06:17:14;12.00;;;7.93;;
4521;SDS011;2273;48.464;11.926;2023-11-18T06:19:39;12.47;;;8.20;;
4521;SDS011;2273;48.464;11.926;2023-11-18T06:22:04;11.90;;;7.90;;
4521;SDS011;2273;48.464;11.926;2023-11-18T06:24:31;11.93;;;7.87;;
4521;SDS011;2273;48.464;11.926;2023-11-18T06:26:56;12.77;;;8.33;;
4521;SDS011;2273;48.464;11.926;2023-11-18T06:29:22;10.60;;;7.57;;
4521;SDS011;2273;48.464;11.926;2023-11-18T06:31:48;11.80;;;8.50;;
4521;SDS011;2273;48.464;11.926;2023-11-18T06:34:14;12.67;;;8.20;;
4521;SDS011;2273;48.464;11.926;2023-11-18T06:36:39;11.30;;;8.00;;
4521;SDS011;2273;48.464;11.926;2023-11-18T06:39:05;12.97;;;8.60;;
4521;SDS011;2273;48.464;11.926;2023-11-18T06:41:32;10.80;;;7.40;;
4521;SDS011;2273;48.464;11.926;2023-11-18T06:44:03;12.60;;;8.67;;
4521;SDS011;2273;48.464;11.926;2023-11-18T06:46:37;13.03;;;9.00;;
4521;SDS011;2273;48.464;11.926;2023-11-18T06:49:05;14.00;;;9.23;;
4521;SDS011;2273;48.464;11.926;2023-11-18T06:51:33;12.93;;;8.03;;
4521;SDS011;2273;48.464;11.926;2023-11-18T06:54:03;13.27;;;8.30;;
4521;SDS011;2273;48.464;11.926;2023-11-18T06:56:33;12.43;;;8.40;;
4521;SDS011;2273;48.464;11.926;2023-11-18T06:59:06;10.70;;;7.93;;
4521;SDS011;2273;48.464;11.926;2023-11-18T07:01:32;13.23;;;8.00;;
4521;SDS011;2273;48.464;11.926;2023-11-18T07:03:58;13.00;;;8.17;;
4521;SDS011;2273;48.464;11.926;2023-11-18T07:06:24;12.53;;;8.43;;
4521;SDS011;2273;48.464;11.926;2023-11-18T07:08:51;14.87;;;8.13;;
4521;SDS011;2273;48.464;11.926;2023-11-18T07:11:18;11.33;;;8.13;;
4521;SDS011;2273;48.464;11.926;2023-11-18T07:13:44;13.20;;;8.90;;
4521;SDS011;2273;48.464;11.926;2023-11-18T07:16:10;17.00;;;8.30;;
4521;SDS011;2273;48.464;11.926;2023-11-18T07:18:35;12.57;;;8.17;;
4521;SDS011;2273;48.464;11.926;2023-11-18T07:21:04;12.43;;;8.50;;
4521;SDS011;2273;48.464;11.926;2023-11-18T07:23:30;12.23;;;8.30;;
4521;SDS011;2273;48.464;11.926;2023-11-18T07:25:56;13.07;;;8.17;;
4521;SDS011;2273;48.464;11.926;2023-11-18T07:28:23;17.53;;;7.83;;
4521;SDS011;2273;48.464;11.926;2023-11-18T07:30:48;11.87;;;7.50;;
4521;SDS011;2273;48.464;11.926;2023-11-18T07:33:14;12.60;;;8.13;;
4521;SDS011;2273;48.464;11.926;2023-11-18T07:35:40;13.27;;;8.77;;
4521;SDS011;2273;48.464;11.926;2023-11-18T07:38:05;13.03;;;8.10;;
4521;SDS011;2273;48.464;11.926;2023-11-18T07:40:32;11.70;;;7.73;;
4521;SDS011;2273;48.464;11.926;2023-11-18T07:43:00;10.93;;;7.53;;
4521;SDS011;2273;48.464;11.926;2023-11-18T07:45:34;13.40;;;8.90;;
4521;SDS011;2273;48.464;11.926;2023-11-18T07:48:06;12.00;;;8.20;;
4521;SDS011;2273;48.464;11.926;2023-11-18T07:50:38;10.20;;;7.37;;
4521;SDS011;2273;48.464;11.926;2023-11-18T07:53:09;11.17;;;7.50;;
4521;SDS011;2273;48.464;11.926;2023-11-18T07:55:35;11.57;;;7.70;;
4521;SDS011;2273;48.464;11.926;2023-11-18T07:58:11;9.23;;;6.53;;
4521;SDS011;2273;48.464;11.926;2023-11-18T08:00:37;11.03;;;7.53;;
4521;SDS011;2273;48.464;11.926;2023-11-18T08:03:04;11.70;;;8.33;;
4521;SDS011;2273;48.464;11.926;2023-11-18T08:05:40;19.10;;;8.17;;
4521;SDS011;2273;48.464;11.926;2023-11-18T08:08:06;12.50;;;8.20;;
4521;SDS011;2273;48.464;11.926;2023-11-18T08:10:32;14.83;;;8.27;;
4521;SDS011;2273;48.464;11.926;2023-11-18T08:13:02;13.90;;;8.60;;
4521;SDS011;2273;48.464;11.926;2023-11-18T08:15:32;12.63;;;8.50;;
4521;SDS011;2273;48.464;11.926;2023-11-18T08:17:59;12.80;;;7.77;;
4521;SDS011;2273;48.464;11.926;2023-11-18T08:20:25;10.63;;;7.70;;
4521;SDS011;2273;48.464;11.926;2023-11-18T08:22:50;10.83;;;7.13;;
4521;SDS011;2273;48.464;11.926;2023-11-18T08:25:16;11.27;;;7.40;;
4521;SDS011;2273;48.464;11.926;2023-11-18T08:27:45;14.20;;;7.70;;
4521;SDS011;2273;48.464;11.926;2023-11-18T08:30:11;11.33;;;6.87;;
4521;SDS011;2273;48.464;11.926;2023-11-18T08:32:38;15.53;;;8.17;;
4521;SDS011;2273;48.464;11.926;2023-11-18T08:35:06;18.53;;;7.73;;
4521;SDS011;2273;48.464;11.926;2023-11-18T08:37:36;10.47;;;7.17;;
4521;SDS011;2273;48.464;11.926;2023-11-18T08:40:05;11.13;;;7.60;;
4521;SDS011;2273;48.464;11.926;2023-11-18T08:42:33;10.90;;;7.13;;
4521;SDS011;2273;48.464;11.926;2023-11-18T08:45:00;12.70;;;7.07;;
4521;SDS011;2273;48.464;11.926;2023-11-18T08:47:26;11.63;;;7.57;;
4521;SDS011;2273;48.464;11.926;2023-11-18T08:49:52;9.80;;;6.53;;
4521;SDS011;2273;48.464;11.926;2023-11-18T08:52:17;9.60;;;6.77;;
4521;SDS011;2273;48.464;11.926;2023-11-18T08:54:43;10.77;;;7.40;;
4521;SDS011;2273;48.464;11.926;2023-11-18T08:57:29;10.07;;;7.23;;
4521;SDS011;2273;48.464;11.926;2023-11-18T09:00:16;9.90;;;7.17;;
4521;SDS011;2273;48.464;11.926;2023-11-18T09:03:01;11.13;;;7.43;;
4521;SDS011;2273;48.464;11.926;2023-11-18T09:05:30;10.50;;;7.20;;
4521;SDS011;2273;48.464;11.926;2023-11-18T09:08:01;10.37;;;7.10;;
4521;SDS011;2273;48.464;11.926;2023-11-18T09:10:31;10.03;;;6.60;;
4521;SDS011;2273;48.464;11.926;2023-11-18T09:12:56;8.57;;;6.70;;
4521;SDS011;2273;48.464;11.926;2023-11-18T09:15:22;10.53;;;6.43;;
4521;SDS011;2273;48.464;11.926;2023-11-18T09:17:48;10.70;;;7.37;;
4521;SDS011;2273;48.464;11.926;2023-11-18T09:20:14;11.00;;;7.80;;
4521;SDS011;2273;48.464;11.926;2023-11-18T09:22:45;9.93;;;7.07;;
4521;SDS011;2273;48.464;11.926;2023-11-18T09:25:11;9.97;;;6.60;;
4521;SDS011;2273;48.464;11.926;2023-11-18T09:27:36;9.33;;;6.80;;
4521;SDS011;2273;48.464;11.926;2023-11-18T09:30:04;11.13;;;7.00;;
4521;SDS011;2273;48.464;11.926;2023-11-18T09:32:41;10.30;;;6.33;;
4521;SDS011;2273;48.464;11.926;2023-11-18T09:35:10;9.83;;;7.17;;
4521;SDS011;2273;48.464;11.926;2023-11-18T09:37:38;9.10;;;6.17;;
4521;SDS011;2273;48.464;11.926;2023-11-18T09:40:06;10.67;;;6.97;;
4521;SDS011;2273;48.464;11.926;2023-11-18T09:42:42;8.70;;;6.20;;
4521;SDS011;2273;48.464;11.926;2023-11-18T09:45:09;9.00;;;6.40;;
4521;SDS011;2273;48.464;11.926;2023-11-18T09:47:44;9.33;;;6.17;;
4521;SDS011;2273;48.464;11.926;2023-11-18T09:50:13;9.30;;;6.37;;
4521;SDS011;2273;48.464;11.926;2023-11-18T09:52:42;8.33;;;6.50;;
4521;SDS011;2273;48.464;11.926;2023-11-18T09:55:28;11.50;;;6.70;;
4521;SDS011;2273;48.464;11.926;2023-11-18T09:57:59;9.03;;;6.50;;
4521;SDS011;2273;48.464;11.926;2023-11-18T10:00:29;11.27;;;6.47;;
4521;SDS011;2273;48.464;11.926;2023-11-18T10:02:58;10.10;;;6.80;;
4521;SDS011;2273;48.464;11.926;2023-11-18T10:05:27;10.90;;;6.53;;
4521;SDS011;2273;48.464;11.926;2023-11-18T10:07:52;9.53;;;6.57;;
4521;SDS011;2273;48.464;11.926;2023-11-18T10:10:19;6.80;;;5.20;;
4521;SDS011;2273;48.464;11.926;2023-11-18T10:12:49;9.33;;;6.30;;
4521;SDS011;2273;48.464;11.926;2023-11-18T10:15:21;7.83;;;5.60;;
4521;SDS011;2273;48.464;11.926;2023-11-18T10:17:53;7.33;;;5.63;;
4521;SDS011;2273;48.464;11.926;2023-11-18T10:20:46;7.83;;;5.30;;
4521;SDS011;2273;48.464;11.926;2023-11-18T10:23:11;9.33;;;5.80;;
4521;SDS011;2273;48.464;11.926;2023-11-18T10:25:54;7.07;;;5.30;;
4521;SDS011;2273;48.464;11.926;2023-11-18T10:31:02;7.90;;;5.03;;
4521;SDS011;2273;48.464;11.926;2023-11-18T10:33:32;6.70;;;4.97;;
4521;SDS011;2273;48.464;11.926;2023-11-18T10:35:58;6.40;;;5.00;;
4521;SDS011;2273;48.464;11.926;2023-11-18T10:38:28;7.13;;;5.33;;
4521;SDS011;2273;48.464;11.926;2023-11-18T10:40:58;7.57;;;4.90;;
4521;SDS011;2273;48.464;11.926;2023-11-18T10:43:26;6.10;;;4.80;;
4521;SDS011;2273;48.464;11.926;2023-11-18T10:46:04;7.17;;;5.03;;
4521;SDS011;2273;48.464;11.926;2023-11-18T10:48:41;10.73;;;4.70;;
4521;SDS011;2273;48.464;11.926;2023-11-18T10:51:11;9.47;;;5.17;;
4521;SDS011;2273;48.464;11.926;2023-11-18T10:53:40;9.40;;;4.67;;
4521;SDS011;2273;48.464;11.926;2023-11-18T10:56:21;7.30;;;4.57;;
4521;SDS011;2273;48.464;11.926;2023-11-18T10:58:57;6.53;;;4.43;;
4521;SDS011;2273;48.464;11.926;2023-11-18T11:01:30;5.30;;;4.20;;
4521;SDS011;2273;48.464;11.926;2023-11-18T11:03:59;6.87;;;4.50;;
4521;SDS011;2273;48.464;11.926;2023-11-18T11:06:29;5.93;;;4.33;;
4521;SDS011;2273;48.464;11.926;2023-11-18T11:08:58;6.10;;;3.83;;
4521;SDS011;2273;48.464;11.926;2023-11-18T11:11:24;6.47;;;4.40;;
4521;SDS011;2273;48.464;11.926;2023-11-18T11:13:58;7.23;;;4.90;;
4521;SDS011;2273;48.464;11.926;2023-11-18T11:16:28;6.67;;;4.57;;
4521;SDS011;2273;48.464;11.926;2023-11-18T11:19:00;5.03;;;4.23;;
4521;SDS011;2273;48.464;11.926;2023-11-18T11:21:33;5.53;;;4.10;;
4521;SDS011;2273;48.464;11.926;2023-11-18T11:24:04;6.13;;;4.53;;
4521;SDS011;2273;48.464;11.926;2023-11-18T11:26:37;5.10;;;4.10;;
4521;SDS011;2273;48.464;11.926;2023-11-18T11:29:40;4.70;;;3.70;;
4521;SDS011;2273;48.464;11.926;2023-11-18T11:32:22;4.80;;;3.60;;
4521;SDS011;2273;48.464;11.926;2023-11-18T11:35:02;5.50;;;4.03;;
4521;SDS011;2273;48.464;11.926;2023-11-18T11:37:33;3.30;;;2.30;;
4521;SDS011;2273;48.464;11.926;2023-11-18T11:39:59;3.33;;;2.57;;
4521;SDS011;2273;48.464;11.926;2023-11-18T11:42:29;3.90;;;3.03;;
4521;SDS011;2273;48.464;11.926;2023-11-18T11:44:54;4.23;;;2.20;;
4521;SDS011;2273;48.464;11.926;2023-11-18T11:47:20;5.50;;;2.07;;
4521;SDS011;2273;48.464;11.926;2023-11-18T11:49:50;3.30;;;2.60;;
4521;SDS011;2273;48.464;11.926;2023-11-18T11:52:42;6.33;;;3.83;;
4521;SDS011;2273;48.464;11.926;2023-11-18T11:55:12;7.50;;;2.73;;
4521;SDS011;2273;48.464;11.926;2023-11-18T11:57:49;3.70;;;2.77;;
4521;SDS011;2273;48.464;11.926;2023-11-18T12:00:18;4.57;;;2.73;;
4521;SDS011;2273;48.464;11.926;2023-11-18T12:02:48;3.67;;;3.17;;
4521;SDS011;2273;48.464;11.926;2023-11-18T12:05:17;4.00;;;2.60;;
4521;SDS011;2273;48.464;11.926;2023-11-18T12:07:54;3.63;;;2.57;;
4521;SDS011;2273;48.464;11.926;2023-11-18T12:10:26;5.37;;;3.10;;
4521;SDS011;2273;48.464;11.926;2023-11-18T12:15:50;4.70;;;2.97;;
4521;SDS011;2273;48.464;11.926;2023-11-18T12:18:22;4.37;;;2.97;;
4521;SDS011;2273;48.464;11.926;2023-11-18T12:20:49;4.10;;;2.70;;
4521;SDS011;2273;48.464;11.926;2023-11-18T12:23:21;3.10;;;2.13;;
4521;SDS011;2273;48.464;11.926;2023-11-18T12:25:53;4.63;;;2.90;;
4521;SDS011;2273;48.464;11.926;2023-11-18T12:28:26;3.10;;;2.20;;
4521;SDS011;2273;48.464;11.926;2023-11-18T12:30:56;3.40;;;2.27;;
4521;SDS011;2273;48.464;11.926;2023-11-18T12:33:26;3.50;;;2.33;;
4521;SDS011;2273;48.464;11.926;2023-11-18T12:46:55;2.90;;;2.30;;
4521;SDS011;2273;48.464;11.926;2023-11-18T12:49:37;4.20;;;2.50;;
4521;SDS011;2273;48.464;11.926;2023-11-18T12:52:06;4.40;;;3.33;;
4521;SDS011;2273;48.464;11.926;2023-11-18T12:54:33;3.30;;;2.47;;
4521;SDS011;2273;48.464;11.926;2023-11-18T12:57:02;3.97;;;2.70;;
4521;SDS011;2273;48.464;11.926;2023-11-18T12:59:27;5.57;;;2.77;;
4521;SDS011;2273;48.464;11.926;2023-11-18T13:01:55;4.70;;;2.50;;
4521;SDS011;2273;48.464;11.926;2023-11-18T13:04:23;4.33;;;2.87;;
4521;SDS011;2273;48.464;11.926;2023-11-18T13:06:49;2.97;;;2.33;;
4521;SDS011;2273;48.464;11.926;2023-11-18T13:09:16;4.13;;;2.10;;
4521;SDS011;2273;48.464;11.926;2023-11-18T13:11:54;14.23;;;2.60;;
4521;SDS011;2273;48.464;11.926;2023-11-18T13:14:26;8.53;;;2.57;;
4521;SDS011;2273;48.464;11.926;2023-11-18T13:16:52;6.27;;;2.73;;
4521;SDS011;2273;48.464;11.926;2023-11-18T13:19:27;3.30;;;2.53;;
4521;SDS011;2273;48.464;11.926;2023-11-18T13:22:00;3.50;;;2.60;;
4521;SDS011;2273;48.464;11.926;2023-11-18T13:24:28;4.47;;;2.83;;
4521;SDS011;2273;48.464;11.926;2023-11-18T13:26:55;3.20;;;2.50;;
4521;SDS011;2273;48.464;11.926;2023-11-18T13:29:24;3.33;;;2.63;;
4521;SDS011;2273;48.464;11.926;2023-11-18T13:31:53;3.70;;;2.50;;
4521;SDS011;2273;48.464;11.926;2023-11-18T13:34:19;5.50;;;3.70;;
4521;SDS011;2273;48.464;11.926;2023-11-18T13:36:48;5.33;;;4.13;;
4521;SDS011;2273;48.464;11.926;2023-11-18T13:39:18;6.10;;;4.30;;
4521;SDS011;2273;48.464;11.926;2023-11-18T13:41:44;6.70;;;4.30;;
4521;SDS011;2273;48.464;11.926;2023-11-18T13:44:31;6.80;;;4.37;;
4521;SDS011;2273;48.464;11.926;2023-11-18T13:47:09;4.93;;;3.50;;
4521;SDS011;2273;48.464;11.926;2023-11-18T13:49:37;9.23;;;4.03;;
4521;SDS011;2273;48.464;11.926;2023-11-18T13:52:05;7.17;;;4.80;;
4521;SDS011;2273;48.464;11.926;2023-11-18T13:54:33;7.80;;;4.93;;
4521;SDS011;2273;48.464;11.926;2023-11-18T13:57:00;5.87;;;4.57;;
4521;SDS011;2273;48.464;11.926;2023-11-18T13:59:25;5.87;;;4.30;;
4521;SDS011;2273;48.464;11.926;2023-11-18T14:01:54;7.00;;;4.27;;
4521;SDS011;2273;48.464;11.926;2023-11-18T14:04:29;6.47;;;4.63;;
4521;SDS011;2273;48.464;11.926;2023-11-18T14:06:59;6.13;;;4.37;;
4521;SDS011;2273;48.464;11.926;2023-11-18T14:09:29;7.50;;;4.80;;
4521;SDS011;2273;48.464;11.926;2023-11-18T14:11:55;5.97;;;4.43;;
4521;SDS011;2273;48.464;11.926;2023-11-18T14:14:21;5.77;;;4.80;;
4521;SDS011;2273;48.464;11.926;2023-11-18T14:16:48;9.73;;;4.93;;
4521;SDS011;2273;48.464;11.926;2023-11-18T14:19:14;6.20;;;4.40;;
4521;SDS011;2273;48.464;11.926;2023-11-18T14:21:40;10.67;;;5.10;;
4521;SDS011;2273;48.464;11.926;2023-11-18T14:24:06;7.33;;;5.20;;
4521;SDS011;2273;48.464;11.926;2023-11-18T14:26:37;7.70;;;4.90;;
4521;SDS011;2273;48.464;11.926;2023-11-18T14:29:05;6.70;;;4.87;;
4521;SDS011;2273;48.464;11.926;2023-11-18T14:31:31;10.27;;;6.53;;
4521;SDS011;2273;48.464;11.926;2023-11-18T14:33:57;17.67;;;6.10;;
4521;SDS011;2273;48.464;11.926;2023-11-18T14:36:26;9.03;;;6.00;;
4521;SDS011;2273;48.464;11.926;2023-11-18T14:38:52;7.47;;;4.90;;
4521;SDS011;2273;48.464;11.926;2023-11-18T14:41:17;9.43;;;5.00;;
4521;SDS011;2273;48.464;11.926;2023-11-18T14:43:45;7.00;;;5.00;;
4521;SDS011;2273;48.464;11.926;2023-11-18T14:46:10;6.07;;;4.60;;
4521;SDS011;2273;48.464;11.926;2023-11-18T14:48:36;6.87;;;5.67;;
4521;SDS011;2273;48.464;11.926;2023-11-18T14:51:01;7.80;;;4.77;;
4521;SDS011;2273;48.464;11.926;2023-11-18T14:53:27;6.67;;;5.03;;
4521;SDS011;2273;48.464;11.926;2023-11-18T14:55:54;7.43;;;5.17;;
4521;SDS011;2273;48.464;11.926;2023-11-18T14:58:20;5.83;;;4.70;;
4521;SDS011;2273;48.464;11.926;2023-11-18T15:00:45;10.93;;;4.50;;
4521;SDS011;2273;48.464;11.926;2023-11-18T15:03:12;5.83;;;4.37;;
4521;SDS011;2273;48.464;11.926;2023-11-18T15:05:37;8.93;;;4.47;;
4521;SDS011;2273;48.464;11.926;2023-11-18T15:08:03;6.20;;;4.80;;
4521;SDS011;2273;48.464;11.926;2023-11-18T15:10:34;7.10;;;5.73;;
4521;SDS011;2273;48.464;11.926;2023-11-18T15:13:02;8.30;;;4.50;;
4521;SDS011;2273;48.464;11.926;2023-11-18T15:15:28;6.57;;;4.40;;
4521;SDS011;2273;48.464;11.926;2023-11-18T15:17:59;5.80;;;4.27;;
4521;SDS011;2273;48.464;11.926;2023-11-18T15:20:33;8.97;;;4.13;;
4521;SDS011;2273;48.464;11.926;2023-11-18T15:23:02;6.37;;;4.33;;